createdAt,value
2023-03-16T00:02:08.361Z,10.93
2023-03-16T00:04:38.069Z,12.13
2023-03-16T00:07:06.355Z,11.73
2023-03-16T00:09:33.176Z,12.20
2023-03-16T00:12:03.590Z,10.40
2023-03-16T00:14:31.967Z,11.00
2023-03-16T00:16:58.812Z,10.60
2023-03-16T00:19:25.569Z,10.70
2023-03-16T00:21:53.363Z,10.80
2023-03-16T00:24:20.447Z,9.60
2023-03-16T00:26:48.093Z,10.63
2023-03-16T00:29:15.034Z,10.37
2023-03-16T00:31:45.522Z,9.80
2023-03-16T00:34:13.080Z,9.80
2023-03-16T00:36:39.777Z,9.33
2023-03-16T00:39:07.113Z,9.90
2023-03-16T00:41:38.237Z,9.90
2023-03-16T00:44:05.724Z,9.13
2023-03-16T00:46:32.837Z,9.83
2023-03-16T00:48:59.441Z,9.17
2023-03-16T00:51:26.102Z,9.20
2023-03-16T00:53:52.799Z,9.93
2023-03-16T00:56:19.611Z,8.87
2023-03-16T00:58:46.337Z,8.90
2023-03-16T01:01:16.922Z,8.43
2023-03-16T01:03:43.639Z,9.23
2023-03-16T01:06:17.301Z,9.20
2023-03-16T01:08:44.371Z,9.10
2023-03-16T01:11:16.344Z,8.67
2023-03-16T01:13:44.112Z,9.23
2023-03-16T01:16:11.196Z,9.17
2023-03-16T01:18:37.847Z,8.67
2023-03-16T01:21:08.180Z,8.03
2023-03-16T01:23:35.687Z,8.65
2023-03-16T01:26:02.512Z,8.60
2023-03-16T01:28:31.975Z,8.23
2023-03-16T01:31:05.959Z,8.93
2023-03-16T01:33:33.952Z,8.80
2023-03-16T01:36:07.289Z,9.50
2023-03-16T01:38:34.092Z,9.73
2023-03-16T01:41:00.999Z,9.00
2023-03-16T01:43:29.960Z,8.80
2023-03-16T01:46:05.699Z,9.13
2023-03-16T01:48:54.642Z,9.00
2023-03-16T01:51:37.833Z,9.50
2023-03-16T01:54:22.080Z,8.83
2023-03-16T01:56:58.592Z,8.93
2023-03-16T01:59:32.516Z,9.43
2023-03-16T02:02:00.118Z,9.13
2023-03-16T02:04:44.834Z,8.97
2023-03-16T02:07:16.993Z,10.00
2023-03-16T02:09:49.449Z,9.67
2023-03-16T02:12:18.749Z,9.70
2023-03-16T02:14:46.924Z,9.30
2023-03-16T02:17:20.341Z,9.17
2023-03-16T02:20:01.813Z,9.27
2023-03-16T02:22:28.608Z,9.07
2023-03-16T02:24:55.309Z,10.07
2023-03-16T02:27:40.952Z,10.10
2023-03-16T02:30:14.031Z,9.40
2023-03-16T02:32:41.796Z,9.30
2023-03-16T02:35:11.111Z,10.13
2023-03-16T02:37:37.716Z,9.77
2023-03-16T02:40:23.798Z,9.47
2023-03-16T02:43:09.937Z,10.33
2023-03-16T02:45:49.405Z,9.47
2023-03-16T02:48:27.134Z,8.60
2023-03-16T02:50:54.805Z,9.37
2023-03-16T02:53:21.533Z,9.63
2023-03-16T02:55:48.422Z,9.83
2023-03-16T02:58:16.758Z,10.17
2023-03-16T03:00:43.643Z,9.73
2023-03-16T03:03:10.467Z,9.80
2023-03-16T03:05:37.568Z,9.03
2023-03-16T03:08:05.688Z,10.00
2023-03-16T03:10:32.597Z,9.50
2023-03-16T03:12:59.433Z,9.47
2023-03-16T03:15:26.138Z,9.60
2023-03-16T03:17:52.970Z,9.27
2023-03-16T03:20:19.715Z,9.40
2023-03-16T03:22:48.986Z,9.73
2023-03-16T03:25:18.485Z,9.43
2023-03-16T03:27:46.730Z,9.60
2023-03-16T03:30:16.493Z,8.63
2023-03-16T03:32:44.211Z,10.13
2023-03-16T03:35:13.460Z,9.73
2023-03-16T03:37:42.492Z,9.90
2023-03-16T03:40:11.455Z,10.40
2023-03-16T03:42:39.336Z,9.70
2023-03-16T03:45:07.982Z,10.00
2023-03-16T03:47:34.962Z,10.73
2023-03-16T03:50:01.770Z,10.30
2023-03-16T03:52:28.787Z,11.87
2023-03-16T03:54:55.379Z,11.23
2023-03-16T03:57:22.229Z,10.77
2023-03-16T03:59:49.225Z,11.20
2023-03-16T04:02:16.354Z,11.03
2023-03-16T04:04:44.058Z,11.17
2023-03-16T04:07:11.448Z,11.33
2023-03-16T04:09:38.036Z,11.50
2023-03-16T04:12:06.302Z,11.07
2023-03-16T04:14:33.161Z,11.27
2023-03-16T04:17:00.181Z,11.77
2023-03-16T04:19:26.773Z,11.93
2023-03-16T04:21:53.690Z,11.17
2023-03-16T04:24:22.501Z,11.73
2023-03-16T04:26:49.189Z,11.03
2023-03-16T04:29:19.721Z,11.80
2023-03-16T04:31:46.915Z,11.20
2023-03-16T04:34:13.889Z,12.17
2023-03-16T04:36:41.901Z,12.10
2023-03-16T04:39:09.400Z,12.27
2023-03-16T04:41:36.219Z,12.03
2023-03-16T04:44:02.966Z,13.47
2023-03-16T04:46:29.769Z,12.73
2023-03-16T04:48:58.471Z,12.37
2023-03-16T04:51:26.134Z,13.33
2023-03-16T04:53:53.018Z,13.27
2023-03-16T04:56:21.423Z,12.53
2023-03-16T04:58:49.826Z,12.57
2023-03-16T05:01:18.717Z,11.60
2023-03-16T05:03:46.530Z,12.17
2023-03-16T05:06:13.095Z,11.53
2023-03-16T05:08:39.739Z,10.97
2023-03-16T05:11:06.551Z,11.83
2023-03-16T05:13:33.545Z,14.43
2023-03-16T05:16:00.890Z,14.67
2023-03-16T05:18:27.593Z,16.20
2023-03-16T05:20:58.207Z,15.80
2023-03-16T05:23:24.843Z,18.30
2023-03-16T05:25:51.621Z,16.40
2023-03-16T05:28:18.323Z,15.47
2023-03-16T05:30:48.148Z,14.23
2023-03-16T05:33:14.911Z,12.57
2023-03-16T05:35:41.577Z,14.70
2023-03-16T05:38:09.996Z,15.80
2023-03-16T05:40:37.479Z,16.63
2023-03-16T05:43:04.628Z,17.50
2023-03-16T05:45:31.473Z,19.70
2023-03-16T05:47:58.257Z,16.87
2023-03-16T05:50:26.697Z,18.60
2023-03-16T05:52:54.324Z,16.80
2023-03-16T05:55:21.112Z,14.10
2023-03-16T05:57:47.714Z,11.00
2023-03-16T06:00:16.401Z,11.43
2023-03-16T06:02:48.563Z,9.90
2023-03-16T06:05:16.664Z,9.77
2023-03-16T06:07:43.777Z,10.43
2023-03-16T06:10:11.745Z,10.00
2023-03-16T06:12:38.544Z,10.53
2023-03-16T06:15:10.468Z,11.57
2023-03-16T06:17:38.416Z,12.70
2023-03-16T06:20:11.425Z,10.20
2023-03-16T06:22:40.090Z,9.47
2023-03-16T06:25:08.109Z,9.43
2023-03-16T06:27:34.765Z,10.67
2023-03-16T06:30:01.679Z,9.93
2023-03-16T06:32:30.365Z,9.90
2023-03-16T06:34:59.676Z,9.70
2023-03-16T06:37:26.235Z,9.23
2023-03-16T06:39:52.741Z,9.03
2023-03-16T06:42:19.646Z,7.97
2023-03-16T06:44:46.253Z,8.50
2023-03-16T06:47:13.589Z,8.37
2023-03-16T06:49:40.489Z,8.40
2023-03-16T06:52:07.084Z,8.97
2023-03-16T06:54:35.347Z,8.17
2023-03-16T06:57:02.218Z,8.00
2023-03-16T06:59:28.950Z,7.80
2023-03-16T07:01:55.741Z,7.87
2023-03-16T07:04:22.461Z,11.63
2023-03-16T07:06:49.450Z,8.13
2023-03-16T07:09:15.957Z,8.37
2023-03-16T07:11:42.745Z,9.00
2023-03-16T07:14:09.460Z,8.00
2023-03-16T07:16:37.247Z,9.17
2023-03-16T07:19:03.848Z,9.40
2023-03-16T07:21:32.301Z,9.10
2023-03-16T07:24:00.265Z,9.03
2023-03-16T07:26:27.013Z,8.40
2023-03-16T07:28:53.646Z,8.20
2023-03-16T07:31:20.320Z,7.50
2023-03-16T07:33:47.031Z,6.77
2023-03-16T07:36:13.622Z,7.43
2023-03-16T07:38:40.394Z,9.23
2023-03-16T07:41:07.158Z,7.17
2023-03-16T07:43:34.509Z,8.70
2023-03-16T07:46:02.347Z,7.60
2023-03-16T07:48:29.081Z,7.57
2023-03-16T07:50:55.632Z,7.40
2023-03-16T07:53:22.754Z,7.63
2023-03-16T07:55:49.652Z,7.17
2023-03-16T07:58:16.317Z,7.13
2023-03-16T08:00:42.961Z,7.53
2023-03-16T08:03:10.160Z,7.60
2023-03-16T08:05:36.764Z,8.20
2023-03-16T08:08:03.428Z,7.83
2023-03-16T08:10:31.490Z,7.83
2023-03-16T08:12:58.345Z,7.40
2023-03-16T08:15:25.147Z,7.07
2023-03-16T08:17:52.645Z,7.20
2023-03-16T08:20:19.423Z,6.80
2023-03-16T08:22:46.941Z,6.77
2023-03-16T08:25:14.966Z,7.03
2023-03-16T08:27:43.161Z,7.57
2023-03-16T08:30:11.942Z,6.97
2023-03-16T08:32:41.155Z,6.90
2023-03-16T08:35:10.245Z,7.30
2023-03-16T08:37:38.993Z,6.93
2023-03-16T08:40:14.236Z,5.47
2023-03-16T08:42:43.212Z,5.27
2023-03-16T08:45:13.785Z,5.33
2023-03-16T08:47:41.492Z,6.40
2023-03-16T08:50:10.109Z,5.80
2023-03-16T08:52:36.763Z,5.23
2023-03-16T08:55:07.393Z,5.30
2023-03-16T08:57:34.680Z,4.50
2023-03-16T09:00:01.764Z,3.50
2023-03-16T09:02:29.168Z,3.93
2023-03-16T09:04:56.454Z,4.07
2023-03-16T09:07:23.110Z,3.50
2023-03-16T09:09:50.934Z,3.10
2023-03-16T09:12:17.644Z,3.30
2023-03-16T09:14:46.076Z,3.30
2023-03-16T09:17:13.015Z,3.97
2023-03-16T09:19:51.245Z,3.47
2023-03-16T09:22:19.964Z,3.03
2023-03-16T09:24:47.546Z,3.50
2023-03-16T09:27:15.407Z,3.67
2023-03-16T09:29:42.986Z,2.87
2023-03-16T09:32:09.976Z,3.07
2023-03-16T09:34:36.783Z,2.60
2023-03-16T09:37:03.860Z,2.27
2023-03-16T09:39:48.705Z,2.60
2023-03-16T09:42:35.458Z,2.93
2023-03-16T09:45:32.323Z,3.30
2023-03-16T09:48:03.745Z,4.00
2023-03-16T09:50:48.463Z,4.20
2023-03-16T09:53:28.700Z,3.40
2023-03-16T09:56:01.387Z,2.88
2023-03-16T09:58:28.575Z,2.20
2023-03-16T10:01:01.280Z,1.90
2023-03-16T10:04:09.808Z,2.20
2023-03-16T10:06:55.403Z,2.03
2023-03-16T10:09:33.248Z,2.30
2023-03-16T10:12:02.774Z,2.73
2023-03-16T10:14:53.712Z,2.63
2023-03-16T10:17:43.359Z,2.30
2023-03-16T10:20:17.782Z,2.35
2023-03-16T10:22:47.063Z,2.40
2023-03-16T10:25:31.678Z,2.53
2023-03-16T10:28:01.573Z,2.50
2023-03-16T10:30:36.456Z,2.80
2023-03-16T10:33:18.332Z,2.83
2023-03-16T10:35:51.394Z,2.73
2023-03-16T10:38:40.553Z,2.63
2023-03-16T10:41:23.150Z,2.40
2023-03-16T10:44:07.370Z,2.70
2023-03-16T10:46:48.754Z,2.53
2023-03-16T10:49:49.263Z,2.53
2023-03-16T10:52:34.538Z,2.33
2023-03-16T10:55:11.060Z,2.67
2023-03-16T10:57:42.787Z,2.53
2023-03-16T11:00:17.001Z,2.60
2023-03-16T11:02:44.200Z,2.37
2023-03-16T11:05:19.570Z,2.43
2023-03-16T11:07:50.991Z,2.80
2023-03-16T11:10:36.136Z,2.40
2023-03-16T11:13:14.815Z,3.00
2023-03-16T11:15:52.108Z,3.57
2023-03-16T11:18:31.377Z,2.50
2023-03-16T11:21:08.366Z,2.27
2023-03-16T11:23:39.405Z,2.20
2023-03-16T11:26:15.464Z,2.50
2023-03-16T11:28:48.786Z,2.53
2023-03-16T11:31:43.195Z,2.83
2023-03-16T11:34:16.222Z,2.20
2023-03-16T11:36:57.802Z,2.20
2023-03-16T11:39:50.754Z,2.20
2023-03-16T11:43:08.637Z,2.33
2023-03-16T11:45:48.414Z,2.30
2023-03-16T11:48:40.425Z,2.20
2023-03-16T11:51:21.170Z,2.00
2023-03-16T11:54:07.975Z,2.73
2023-03-16T11:56:42.789Z,2.40
2023-03-16T11:59:30.002Z,2.40
2023-03-16T12:02:23.273Z,2.80
2023-03-16T12:05:17.841Z,2.27
2023-03-16T12:08:04.461Z,2.10
2023-03-16T12:10:57.961Z,2.13
2023-03-16T12:13:38.991Z,2.00
2023-03-16T12:16:15.580Z,2.23
2023-03-16T12:19:31.760Z,1.90
2023-03-16T12:22:07.948Z,2.20
2023-03-16T12:24:42.648Z,2.13
2023-03-16T12:27:19.239Z,2.10
2023-03-16T12:29:59.815Z,2.27
2023-03-16T12:32:38.947Z,2.00
2023-03-16T12:35:18.468Z,2.20
2023-03-16T12:38:07.958Z,2.10
2023-03-16T12:40:50.896Z,3.22
2023-03-16T12:43:39.555Z,2.23
2023-03-16T12:46:18.729Z,1.90
2023-03-16T12:48:49.533Z,2.30
2023-03-16T12:51:16.304Z,2.40
2023-03-16T12:53:52.399Z,2.40
2023-03-16T12:56:30.992Z,2.77
2023-03-16T12:59:03.500Z,2.20
2023-03-16T13:01:38.118Z,2.17
2023-03-16T13:04:20.522Z,2.30
2023-03-16T13:06:52.853Z,2.00
2023-03-16T13:09:25.431Z,2.17
2023-03-16T13:11:53.430Z,1.80
2023-03-16T13:14:38.486Z,1.90
2023-03-16T13:17:07.195Z,1.67
2023-03-16T13:19:37.912Z,2.37
2023-03-16T13:22:19.976Z,2.10
2023-03-16T13:25:00.097Z,2.30
2023-03-16T13:27:34.528Z,1.80
2023-03-16T13:30:13.932Z,1.80
2023-03-16T13:32:40.891Z,1.83
2023-03-16T13:35:13.479Z,2.23
2023-03-16T13:37:43.843Z,2.00
2023-03-16T13:42:58.464Z,1.73
2023-03-16T13:48:05.629Z,1.93
2023-03-16T13:50:33.969Z,1.90
2023-03-16T13:53:04.805Z,1.70
2023-03-16T13:55:36.872Z,1.87
2023-03-16T13:58:04.864Z,2.33
2023-03-16T14:00:37.531Z,2.13
2023-03-16T14:03:20.255Z,1.90
2023-03-16T14:05:51.088Z,3.60
2023-03-16T14:08:23.743Z,2.30
2023-03-16T14:10:52.102Z,1.90
2023-03-16T14:13:28.407Z,2.13
2023-03-16T14:16:19.933Z,2.10
2023-03-16T14:18:52.371Z,1.73
2023-03-16T14:21:28.247Z,1.90
2023-03-16T14:23:59.296Z,2.03
2023-03-16T14:26:27.156Z,2.07
2023-03-16T14:28:57.551Z,2.60
2023-03-16T14:34:07.638Z,2.17
2023-03-16T14:36:38.916Z,2.40
2023-03-16T14:39:19.700Z,2.20
2023-03-16T14:41:51.421Z,2.50
2023-03-16T14:44:24.990Z,2.50
2023-03-16T14:46:57.142Z,2.20
2023-03-16T14:49:23.738Z,2.20
2023-03-16T14:51:52.868Z,2.33
2023-03-16T14:54:24.515Z,2.03
2023-03-16T14:56:54.342Z,2.77
2023-03-16T14:59:21.807Z,3.65
2023-03-16T15:01:50.570Z,2.10
2023-03-16T15:04:31.376Z,1.80
2023-03-16T15:06:58.870Z,1.90
2023-03-16T15:09:57.402Z,2.50
2023-03-16T15:12:26.249Z,1.70
2023-03-16T15:15:11.577Z,1.97
2023-03-16T15:17:39.082Z,2.27
2023-03-16T15:20:07.304Z,1.77
2023-03-16T15:22:37.789Z,2.30
2023-03-16T15:25:25.154Z,1.90
2023-03-16T15:27:53.881Z,1.97
2023-03-16T15:30:25.880Z,2.53
2023-03-16T15:32:53.130Z,1.80
2023-03-16T15:35:20.698Z,2.30
2023-03-16T15:37:47.969Z,2.20
2023-03-16T15:40:17.651Z,1.80
2023-03-16T15:42:46.884Z,2.67
2023-03-16T15:45:17.668Z,2.30
2023-03-16T15:50:12.868Z,2.00
2023-03-16T15:52:42.212Z,2.80
2023-03-16T15:55:25.032Z,2.10
2023-03-16T15:58:00.057Z,2.40
2023-03-16T16:00:37.566Z,2.30
2023-03-16T16:03:06.751Z,2.10
2023-03-16T16:05:33.836Z,2.13
2023-03-16T16:08:00.760Z,2.13
2023-03-16T16:10:28.788Z,2.10
2023-03-16T16:12:57.025Z,2.47
2023-03-16T16:15:27.490Z,2.50
2023-03-16T16:20:41.252Z,2.70
2023-03-16T16:23:10.512Z,2.30
2023-03-16T16:25:41.519Z,2.00
2023-03-16T16:28:24.706Z,2.07
2023-03-16T16:30:52.454Z,2.27
2023-03-16T16:33:34.912Z,2.20
2023-03-16T16:36:05.110Z,2.20
2023-03-16T16:38:32.488Z,2.10
2023-03-16T16:41:06.983Z,2.00
2023-03-16T16:43:47.760Z,2.17
2023-03-16T16:46:17.706Z,15.93
2023-03-16T16:48:47.200Z,6.03
2023-03-16T16:51:33.289Z,3.43
2023-03-16T16:54:01.208Z,2.90
2023-03-16T16:56:33.717Z,2.70
2023-03-16T16:59:11.127Z,2.30
2023-03-16T17:01:38.147Z,2.60
2023-03-16T17:04:13.555Z,2.60
2023-03-16T17:06:40.317Z,2.50
2023-03-16T17:09:08.949Z,2.27
2023-03-16T17:11:37.548Z,2.83
2023-03-16T17:14:07.791Z,2.70
2023-03-16T17:16:37.067Z,2.97
2023-03-16T17:19:04.321Z,2.60
2023-03-16T17:21:32.029Z,2.90
2023-03-16T17:24:00.367Z,3.00
2023-03-16T17:26:35.959Z,3.07
2023-03-16T17:29:06.717Z,2.77
2023-03-16T17:31:37.052Z,3.97
2023-03-16T17:34:19.856Z,3.17
2023-03-16T17:36:47.043Z,4.60
2023-03-16T17:39:21.203Z,4.50
2023-03-16T17:41:56.172Z,4.83
2023-03-16T17:44:23.987Z,5.13
2023-03-16T17:46:51.368Z,4.20
2023-03-16T17:49:20.158Z,5.57
2023-03-16T17:51:48.335Z,6.90
2023-03-16T17:54:15.104Z,7.60
2023-03-16T17:56:42.328Z,9.67
2023-03-16T17:59:27.800Z,8.50
2023-03-16T18:01:56.392Z,9.53
2023-03-16T18:04:25.950Z,20.37
2023-03-16T18:06:52.912Z,22.33
2023-03-16T18:09:20.597Z,22.90
2023-03-16T18:11:50.058Z,21.33
2023-03-16T18:14:39.964Z,19.97
2023-03-16T18:17:31.880Z,18.73
2023-03-16T18:19:59.466Z,23.30
2023-03-16T18:22:28.137Z,26.50
2023-03-16T18:24:55.329Z,14.83
2023-03-16T18:27:23.109Z,13.17
2023-03-16T18:29:50.047Z,12.37
2023-03-16T18:32:24.735Z,12.03
2023-03-16T18:34:52.859Z,11.50
2023-03-16T18:37:24.011Z,12.93
2023-03-16T18:39:52.805Z,11.73
2023-03-16T18:42:25.923Z,13.00
2023-03-16T18:44:52.677Z,15.07
2023-03-16T18:47:24.034Z,19.07
2023-03-16T18:49:54.137Z,14.00
2023-03-16T18:52:23.157Z,14.50
2023-03-16T18:54:51.566Z,14.00
2023-03-16T18:57:23.917Z,14.83
2023-03-16T18:59:51.254Z,14.67
2023-03-16T19:02:39.395Z,11.97
2023-03-16T19:05:37.062Z,12.93
2023-03-16T19:08:05.367Z,10.63
2023-03-16T19:10:36.717Z,11.23
2023-03-16T19:13:04.726Z,9.20
2023-03-16T19:15:33.957Z,9.77
2023-03-16T19:18:00.914Z,8.73
2023-03-16T19:20:30.653Z,9.43
2023-03-16T19:23:06.905Z,9.37
2023-03-16T19:25:39.082Z,8.37
2023-03-16T19:28:12.575Z,8.10
2023-03-16T19:30:39.187Z,8.57
2023-03-16T19:33:22.470Z,8.13
2023-03-16T19:35:52.170Z,10.73
2023-03-16T19:38:20.323Z,10.18
2023-03-16T19:40:52.085Z,13.43
2023-03-16T19:43:21.988Z,12.87
2023-03-16T19:45:49.894Z,12.68
2023-03-16T19:48:22.963Z,10.53
2023-03-16T19:50:53.263Z,9.27
2023-03-16T19:53:24.203Z,8.98
2023-03-16T19:55:54.728Z,9.03
2023-03-16T19:58:35.617Z,9.45
2023-03-16T20:01:05.993Z,15.00
2023-03-16T20:03:42.622Z,16.88
2023-03-16T20:08:56.392Z,13.17
2023-03-16T20:11:31.009Z,11.57
2023-03-16T20:13:59.136Z,12.30
2023-03-16T20:16:29.166Z,13.90
2023-03-16T20:18:58.462Z,12.15
2023-03-16T20:21:25.930Z,9.87
2023-03-16T20:23:53.572Z,10.87
2023-03-16T20:26:23.637Z,11.27
2023-03-16T20:28:51.987Z,11.50
2023-03-16T20:31:25.811Z,10.23
2023-03-16T20:33:53.928Z,9.50
2023-03-16T20:36:22.671Z,11.83
2023-03-16T20:38:50.399Z,15.03
2023-03-16T20:41:28.284Z,16.77
2023-03-16T20:43:58.669Z,20.20
2023-03-16T20:46:29.198Z,19.48
2023-03-16T20:48:57.618Z,16.00
2023-03-16T20:51:25.298Z,14.57
2023-03-16T20:53:52.607Z,12.63
2023-03-16T20:56:22.417Z,22.13
2023-03-16T20:58:51.769Z,22.23
2023-03-16T21:01:21.525Z,21.47
2023-03-16T21:03:50.769Z,19.93
2023-03-16T21:06:26.157Z,18.40
2023-03-16T21:08:54.453Z,17.93
2023-03-16T21:11:34.936Z,16.03
2023-03-16T21:14:02.184Z,14.55
2023-03-16T21:16:29.361Z,14.47
2023-03-16T21:18:56.153Z,16.27
2023-03-16T21:21:23.273Z,20.63
2023-03-16T21:23:49.910Z,27.60
2023-03-16T21:26:20.344Z,26.30
2023-03-16T21:28:55.865Z,20.50
2023-03-16T21:31:23.177Z,23.47
2023-03-16T21:33:51.383Z,26.53
2023-03-16T21:36:22.033Z,22.17
2023-03-16T21:38:50.280Z,23.45
2023-03-16T21:41:17.807Z,24.90
2023-03-16T21:43:45.124Z,23.23
2023-03-16T21:46:21.531Z,22.23
2023-03-16T21:48:50.919Z,17.80
2023-03-16T21:51:20.941Z,16.60
2023-03-16T21:53:49.341Z,15.33
2023-03-16T21:56:22.875Z,15.13
2023-03-16T21:58:50.213Z,14.67
2023-03-16T22:01:29.617Z,14.03
2023-03-16T22:04:09.056Z,14.63
2023-03-16T22:06:36.144Z,14.40
2023-03-16T22:09:04.171Z,14.97
2023-03-16T22:11:31.448Z,13.90
2023-03-16T22:13:59.600Z,13.03
2023-03-16T22:16:28.787Z,13.87
2023-03-16T22:18:58.042Z,15.40
2023-03-16T22:21:27.855Z,14.33
2023-03-16T22:23:56.128Z,14.10
2023-03-16T22:26:23.634Z,15.57
2023-03-16T22:28:51.002Z,16.27
2023-03-16T22:31:21.200Z,16.50
2023-03-16T22:33:49.518Z,15.82
2023-03-16T22:36:21.603Z,21.53
2023-03-16T22:39:12.406Z,19.50
2023-03-16T22:41:39.130Z,21.52
2023-03-16T22:44:17.313Z,19.53
2023-03-16T22:46:44.039Z,18.30
2023-03-16T22:49:28.946Z,17.83
2023-03-16T22:51:57.587Z,19.33
2023-03-16T22:54:28.790Z,18.47
2023-03-16T22:56:55.657Z,18.70
2023-03-16T22:59:25.290Z,19.13
2023-03-16T23:01:52.152Z,21.90
2023-03-16T23:04:22.004Z,19.87
2023-03-16T23:06:50.212Z,19.10
2023-03-16T23:09:18.464Z,18.10
2023-03-16T23:11:47.352Z,18.53
2023-03-16T23:14:17.025Z,18.47
2023-03-16T23:16:44.563Z,19.20
2023-03-16T23:19:25.344Z,19.47
2023-03-16T23:21:55.203Z,18.70
2023-03-16T23:24:22.515Z,16.30
2023-03-16T23:26:50.432Z,15.93
2023-03-16T23:29:17.831Z,17.13
2023-03-16T23:31:44.457Z,16.70
2023-03-16T23:34:16.718Z,17.30
2023-03-16T23:36:46.526Z,16.13
2023-03-16T23:39:13.640Z,16.67
2023-03-16T23:41:44.024Z,15.90
2023-03-16T23:44:17.927Z,16.10
2023-03-16T23:46:44.796Z,15.37
2023-03-16T23:49:19.464Z,15.07
2023-03-16T23:51:46.628Z,16.27
2023-03-16T23:54:23.290Z,15.83
2023-03-16T23:56:51.568Z,15.43
2023-03-16T23:59:21.063Z,17.00
